Elmore, Vermont
Current Conditions -  °F | °C
As of 3:51 PM on Sunday 23 Nov 2014 (Local Time) from KMPV Reporting Station
Clear Clear  
Wind Chill: 40°   Ceiling: Unl
Heat Index: 44°   Visibility: 9mi
Dew Point: 38°   Wind: 8mph
Humidity: 79%   Direction: 170°S
Pressure: 30.07"   Gusts: NA
Location:  44.5407°N, 72.5287°W
Report Text: KMPV 232051Z AUTO 17007KT 9SM CLR 07/03 A3007 RMK AO2 SLP192 T00670033 50001
Loading
Personal Weather Stations






























Interactive Weather Map New forecast layout! Learn more

10-Day Weather Forecast

Advertisements
Track Severe Weather on mobile